sensor_id;sensor_type;location;lat;lon;timestamp;P1;durP1;ratioP1;P2;durP2;ratioP2
19940;SDS011;10132;50.864;5.176;2023-03-01T00:00:40;8.33;;;7.17;;
19940;SDS011;10132;50.864;5.176;2023-03-01T00:02:47;10.83;;;7.10;;
19940;SDS011;10132;50.864;5.176;2023-03-01T00:04:49;11.23;;;6.63;;
19940;SDS011;10132;50.864;5.176;2023-03-01T00:06:52;9.13;;;6.87;;
19940;SDS011;10132;50.864;5.176;2023-03-01T00:08:54;10.87;;;8.00;;
19940;SDS011;10132;50.864;5.176;2023-03-01T00:11:02;10.27;;;7.10;;
19940;SDS011;10132;50.864;5.176;2023-03-01T00:13:06;8.60;;;7.13;;
19940;SDS011;10132;50.864;5.176;2023-03-01T00:15:08;9.03;;;7.50;;
19940;SDS011;10132;50.864;5.176;2023-03-01T00:17:10;12.40;;;7.30;;
19940;SDS011;10132;50.864;5.176;2023-03-01T00:19:14;9.23;;;7.00;;
19940;SDS011;10132;50.864;5.176;2023-03-01T00:21:17;11.13;;;7.80;;
19940;SDS011;10132;50.864;5.176;2023-03-01T00:23:21;8.93;;;7.07;;
19940;SDS011;10132;50.864;5.176;2023-03-01T00:25:24;12.33;;;7.67;;
19940;SDS011;10132;50.864;5.176;2023-03-01T00:27:26;9.87;;;7.07;;
19940;SDS011;10132;50.864;5.176;2023-03-01T00:29:27;11.23;;;7.20;;
19940;SDS011;10132;50.864;5.176;2023-03-01T00:31:30;11.63;;;7.47;;
19940;SDS011;10132;50.864;5.176;2023-03-01T00:33:33;10.77;;;7.13;;
19940;SDS011;10132;50.864;5.176;2023-03-01T00:35:37;11.23;;;7.00;;
19940;SDS011;10132;50.864;5.176;2023-03-01T00:37:39;10.90;;;7.17;;
19940;SDS011;10132;50.864;5.176;2023-03-01T00:39:42;10.17;;;7.43;;
19940;SDS011;10132;50.864;5.176;2023-03-01T00:41:44;8.80;;;7.23;;
19940;SDS011;10132;50.864;5.176;2023-03-01T00:43:46;10.17;;;7.80;;
19940;SDS011;10132;50.864;5.176;2023-03-01T00:45:48;10.40;;;8.10;;
19940;SDS011;10132;50.864;5.176;2023-03-01T00:47:50;10.80;;;7.67;;
19940;SDS011;10132;50.864;5.176;2023-03-01T00:49:52;11.33;;;7.10;;
19940;SDS011;10132;50.864;5.176;2023-03-01T00:51:56;10.40;;;7.47;;
19940;SDS011;10132;50.864;5.176;2023-03-01T00:53:58;11.27;;;7.87;;
19940;SDS011;10132;50.864;5.176;2023-03-01T00:56:02;8.20;;;6.67;;
19940;SDS011;10132;50.864;5.176;2023-03-01T00:58:04;9.03;;;7.10;;
19940;SDS011;10132;50.864;5.176;2023-03-01T01:00:07;9.97;;;6.90;;
19940;SDS011;10132;50.864;5.176;2023-03-01T01:02:11;8.83;;;6.87;;
19940;SDS011;10132;50.864;5.176;2023-03-01T01:04:13;11.73;;;6.87;;
19940;SDS011;10132;50.864;5.176;2023-03-01T01:06:16;9.13;;;6.90;;
19940;SDS011;10132;50.864;5.176;2023-03-01T01:08:20;8.07;;;6.33;;
19940;SDS011;10132;50.864;5.176;2023-03-01T01:10:22;11.90;;;7.37;;
19940;SDS011;10132;50.864;5.176;2023-03-01T01:12:24;8.60;;;6.90;;
19940;SDS011;10132;50.864;5.176;2023-03-01T01:14:26;9.70;;;6.83;;
19940;SDS011;10132;50.864;5.176;2023-03-01T01:16:29;8.00;;;6.77;;
19940;SDS011;10132;50.864;5.176;2023-03-01T01:18:31;10.73;;;6.63;;
19940;SDS011;10132;50.864;5.176;2023-03-01T01:20:34;8.83;;;6.90;;
19940;SDS011;10132;50.864;5.176;2023-03-01T01:22:37;9.33;;;7.10;;
19940;SDS011;10132;50.864;5.176;2023-03-01T01:24:41;10.30;;;7.50;;
19940;SDS011;10132;50.864;5.176;2023-03-01T01:26:43;9.50;;;6.87;;
19940;SDS011;10132;50.864;5.176;2023-03-01T01:28:45;9.63;;;6.60;;
19940;SDS011;10132;50.864;5.176;2023-03-01T01:30:47;9.93;;;6.33;;
19940;SDS011;10132;50.864;5.176;2023-03-01T01:32:49;9.07;;;6.37;;
19940;SDS011;10132;50.864;5.176;2023-03-01T01:34:51;8.60;;;6.60;;
19940;SDS011;10132;50.864;5.176;2023-03-01T01:36:53;9.10;;;6.97;;
19940;SDS011;10132;50.864;5.176;2023-03-01T01:38:55;10.33;;;7.13;;
19940;SDS011;10132;50.864;5.176;2023-03-01T01:40:59;11.30;;;6.77;;
19940;SDS011;10132;50.864;5.176;2023-03-01T01:43:01;11.57;;;7.63;;
19940;SDS011;10132;50.864;5.176;2023-03-01T01:45:24;11.47;;;7.77;;
19940;SDS011;10132;50.864;5.176;2023-03-01T01:47:28;9.43;;;6.70;;
19940;SDS011;10132;50.864;5.176;2023-03-01T01:49:31;11.40;;;7.50;;
19940;SDS011;10132;50.864;5.176;2023-03-01T01:51:37;9.93;;;7.03;;
19940;SDS011;10132;50.864;5.176;2023-03-01T01:53:41;9.73;;;7.27;;
19940;SDS011;10132;50.864;5.176;2023-03-01T01:55:47;10.63;;;7.00;;
19940;SDS011;10132;50.864;5.176;2023-03-01T01:57:54;12.03;;;7.40;;
19940;SDS011;10132;50.864;5.176;2023-03-01T02:00:04;12.27;;;7.07;;
19940;SDS011;10132;50.864;5.176;2023-03-01T02:02:08;8.93;;;7.43;;
19940;SDS011;10132;50.864;5.176;2023-03-01T02:04:10;10.00;;;7.53;;
19940;SDS011;10132;50.864;5.176;2023-03-01T02:06:13;8.80;;;6.67;;
19940;SDS011;10132;50.864;5.176;2023-03-01T02:08:20;11.03;;;7.30;;
19940;SDS011;10132;50.864;5.176;2023-03-01T02:10:24;10.40;;;7.10;;
19940;SDS011;10132;50.864;5.176;2023-03-01T02:12:27;8.60;;;6.93;;
19940;SDS011;10132;50.864;5.176;2023-03-01T02:14:32;10.50;;;6.90;;
19940;SDS011;10132;50.864;5.176;2023-03-01T02:16:34;10.40;;;6.67;;
19940;SDS011;10132;50.864;5.176;2023-03-01T02:18:36;11.83;;;7.13;;
19940;SDS011;10132;50.864;5.176;2023-03-01T02:20:41;9.40;;;6.83;;
19940;SDS011;10132;50.864;5.176;2023-03-01T02:22:50;9.23;;;6.90;;
19940;SDS011;10132;50.864;5.176;2023-03-01T02:24:57;13.27;;;6.90;;
19940;SDS011;10132;50.864;5.176;2023-03-01T02:27:08;9.00;;;6.90;;
19940;SDS011;10132;50.864;5.176;2023-03-01T02:29:13;9.27;;;6.80;;
19940;SDS011;10132;50.864;5.176;2023-03-01T02:31:15;10.63;;;6.97;;
19940;SDS011;10132;50.864;5.176;2023-03-01T02:33:37;9.53;;;6.80;;
19940;SDS011;10132;50.864;5.176;2023-03-01T02:35:40;9.20;;;6.50;;
19940;SDS011;10132;50.864;5.176;2023-03-01T02:37:42;8.03;;;6.43;;
19940;SDS011;10132;50.864;5.176;2023-03-01T02:39:46;9.07;;;6.73;;
19940;SDS011;10132;50.864;5.176;2023-03-01T02:41:51;9.13;;;7.10;;
19940;SDS011;10132;50.864;5.176;2023-03-01T02:43:55;9.53;;;7.17;;
19940;SDS011;10132;50.864;5.176;2023-03-01T02:45:59;8.30;;;6.77;;
19940;SDS011;10132;50.864;5.176;2023-03-01T02:48:04;12.17;;;7.17;;
19940;SDS011;10132;50.864;5.176;2023-03-01T02:50:11;10.37;;;6.93;;
19940;SDS011;10132;50.864;5.176;2023-03-01T02:52:34;8.93;;;6.50;;
19940;SDS011;10132;50.864;5.176;2023-03-01T02:54:47;9.20;;;7.17;;
19940;SDS011;10132;50.864;5.176;2023-03-01T02:56:52;8.90;;;7.17;;
19940;SDS011;10132;50.864;5.176;2023-03-01T02:58:54;8.93;;;6.53;;
19940;SDS011;10132;50.864;5.176;2023-03-01T03:01:02;9.77;;;7.27;;
19940;SDS011;10132;50.864;5.176;2023-03-01T03:03:04;10.20;;;6.73;;
19940;SDS011;10132;50.864;5.176;2023-03-01T03:05:08;11.47;;;7.20;;
19940;SDS011;10132;50.864;5.176;2023-03-01T03:07:12;9.23;;;7.33;;
19940;SDS011;10132;50.864;5.176;2023-03-01T03:09:14;9.57;;;6.30;;
19940;SDS011;10132;50.864;5.176;2023-03-01T03:11:16;9.97;;;6.57;;
19940;SDS011;10132;50.864;5.176;2023-03-01T03:13:18;9.70;;;7.60;;
19940;SDS011;10132;50.864;5.176;2023-03-01T03:15:22;9.23;;;6.97;;
19940;SDS011;10132;50.864;5.176;2023-03-01T03:17:26;9.13;;;6.93;;
19940;SDS011;10132;50.864;5.176;2023-03-01T03:19:28;9.73;;;7.07;;
19940;SDS011;10132;50.864;5.176;2023-03-01T03:21:30;11.60;;;6.77;;
19940;SDS011;10132;50.864;5.176;2023-03-01T03:23:32;9.17;;;7.07;;
19940;SDS011;10132;50.864;5.176;2023-03-01T03:25:34;9.80;;;6.77;;
19940;SDS011;10132;50.864;5.176;2023-03-01T03:27:37;10.70;;;7.20;;
19940;SDS011;10132;50.864;5.176;2023-03-01T03:29:40;9.20;;;6.90;;
19940;SDS011;10132;50.864;5.176;2023-03-01T03:31:42;9.90;;;7.17;;
19940;SDS011;10132;50.864;5.176;2023-03-01T03:33:45;9.87;;;7.40;;
19940;SDS011;10132;50.864;5.176;2023-03-01T03:35:48;9.47;;;7.30;;
19940;SDS011;10132;50.864;5.176;2023-03-01T03:37:51;9.80;;;7.57;;
19940;SDS011;10132;50.864;5.176;2023-03-01T03:40:07;10.23;;;7.43;;
19940;SDS011;10132;50.864;5.176;2023-03-01T03:42:15;10.97;;;7.10;;
19940;SDS011;10132;50.864;5.176;2023-03-01T03:44:17;10.03;;;7.30;;
19940;SDS011;10132;50.864;5.176;2023-03-01T03:46:19;12.13;;;7.60;;
19940;SDS011;10132;50.864;5.176;2023-03-01T03:48:21;9.90;;;7.53;;
19940;SDS011;10132;50.864;5.176;2023-03-01T03:50:24;11.53;;;7.70;;
19940;SDS011;10132;50.864;5.176;2023-03-01T03:52:26;9.30;;;7.33;;
19940;SDS011;10132;50.864;5.176;2023-03-01T03:54:28;9.33;;;7.33;;
19940;SDS011;10132;50.864;5.176;2023-03-01T03:56:30;10.43;;;7.87;;
19940;SDS011;10132;50.864;5.176;2023-03-01T03:58:32;10.53;;;7.70;;
19940;SDS011;10132;50.864;5.176;2023-03-01T04:00:35;9.57;;;7.60;;
19940;SDS011;10132;50.864;5.176;2023-03-01T04:02:39;12.07;;;7.90;;
19940;SDS011;10132;50.864;5.176;2023-03-01T04:04:41;11.73;;;7.90;;
19940;SDS011;10132;50.864;5.176;2023-03-01T04:06:44;12.13;;;8.17;;
19940;SDS011;10132;50.864;5.176;2023-03-01T04:08:48;10.27;;;8.20;;
19940;SDS011;10132;50.864;5.176;2023-03-01T04:10:51;9.23;;;7.50;;
19940;SDS011;10132;50.864;5.176;2023-03-01T04:12:57;9.70;;;7.67;;
19940;SDS011;10132;50.864;5.176;2023-03-01T04:14:59;10.63;;;7.80;;
19940;SDS011;10132;50.864;5.176;2023-03-01T04:17:01;10.67;;;8.10;;
19940;SDS011;10132;50.864;5.176;2023-03-01T04:19:05;10.90;;;8.53;;
19940;SDS011;10132;50.864;5.176;2023-03-01T04:21:09;12.53;;;8.00;;
19940;SDS011;10132;50.864;5.176;2023-03-01T04:23:13;11.23;;;7.30;;
19940;SDS011;10132;50.864;5.176;2023-03-01T04:25:20;11.27;;;8.30;;
19940;SDS011;10132;50.864;5.176;2023-03-01T04:27:21;10.33;;;7.87;;
19940;SDS011;10132;50.864;5.176;2023-03-01T04:29:23;10.47;;;8.10;;
19940;SDS011;10132;50.864;5.176;2023-03-01T04:31:25;11.20;;;7.63;;
19940;SDS011;10132;50.864;5.176;2023-03-01T04:33:28;10.47;;;7.87;;
19940;SDS011;10132;50.864;5.176;2023-03-01T04:35:30;9.47;;;8.03;;
19940;SDS011;10132;50.864;5.176;2023-03-01T04:37:32;13.53;;;8.83;;
19940;SDS011;10132;50.864;5.176;2023-03-01T04:39:36;11.50;;;8.40;;
19940;SDS011;10132;50.864;5.176;2023-03-01T04:41:45;13.40;;;8.20;;
19940;SDS011;10132;50.864;5.176;2023-03-01T04:43:47;9.67;;;7.47;;
19940;SDS011;10132;50.864;5.176;2023-03-01T04:45:49;12.07;;;8.60;;
19940;SDS011;10132;50.864;5.176;2023-03-01T04:47:51;12.07;;;8.00;;
19940;SDS011;10132;50.864;5.176;2023-03-01T04:49:53;12.50;;;8.07;;
19940;SDS011;10132;50.864;5.176;2023-03-01T04:51:55;13.63;;;9.10;;
19940;SDS011;10132;50.864;5.176;2023-03-01T04:53:58;10.67;;;8.23;;
19940;SDS011;10132;50.864;5.176;2023-03-01T04:56:02;11.10;;;8.20;;
19940;SDS011;10132;50.864;5.176;2023-03-01T04:58:04;13.53;;;8.40;;
19940;SDS011;10132;50.864;5.176;2023-03-01T05:00:07;13.37;;;8.73;;
19940;SDS011;10132;50.864;5.176;2023-03-01T05:02:20;11.10;;;8.27;;
19940;SDS011;10132;50.864;5.176;2023-03-01T05:04:23;13.43;;;7.83;;
19940;SDS011;10132;50.864;5.176;2023-03-01T05:06:25;10.70;;;7.80;;
19940;SDS011;10132;50.864;5.176;2023-03-01T05:08:27;12.57;;;8.90;;
19940;SDS011;10132;50.864;5.176;2023-03-01T05:10:30;12.63;;;9.33;;
19940;SDS011;10132;50.864;5.176;2023-03-01T05:12:36;11.80;;;9.20;;
19940;SDS011;10132;50.864;5.176;2023-03-01T05:14:38;13.47;;;9.00;;
19940;SDS011;10132;50.864;5.176;2023-03-01T05:16:40;14.40;;;8.57;;
19940;SDS011;10132;50.864;5.176;2023-03-01T05:18:42;11.43;;;8.33;;
19940;SDS011;10132;50.864;5.176;2023-03-01T05:20:44;10.77;;;8.30;;
19940;SDS011;10132;50.864;5.176;2023-03-01T05:22:47;11.10;;;8.60;;
19940;SDS011;10132;50.864;5.176;2023-03-01T05:24:49;11.07;;;8.57;;
19940;SDS011;10132;50.864;5.176;2023-03-01T05:26:51;11.83;;;9.47;;
19940;SDS011;10132;50.864;5.176;2023-03-01T05:28:54;14.97;;;8.70;;
19940;SDS011;10132;50.864;5.176;2023-03-01T05:30:58;12.17;;;8.50;;
19940;SDS011;10132;50.864;5.176;2023-03-01T05:33:00;15.07;;;9.83;;
19940;SDS011;10132;50.864;5.176;2023-03-01T05:35:02;10.67;;;7.83;;
19940;SDS011;10132;50.864;5.176;2023-03-01T05:37:05;14.17;;;8.97;;
19940;SDS011;10132;50.864;5.176;2023-03-01T05:39:08;14.67;;;9.30;;
19940;SDS011;10132;50.864;5.176;2023-03-01T05:41:13;11.63;;;9.33;;
19940;SDS011;10132;50.864;5.176;2023-03-01T05:43:16;11.87;;;8.60;;
19940;SDS011;10132;50.864;5.176;2023-03-01T05:45:20;12.57;;;9.30;;
19940;SDS011;10132;50.864;5.176;2023-03-01T05:47:23;13.37;;;9.57;;
19940;SDS011;10132;50.864;5.176;2023-03-01T05:49:25;16.13;;;9.63;;
19940;SDS011;10132;50.864;5.176;2023-03-01T05:51:27;13.30;;;8.97;;
19940;SDS011;10132;50.864;5.176;2023-03-01T05:53:29;11.83;;;8.90;;
19940;SDS011;10132;50.864;5.176;2023-03-01T05:55:31;12.53;;;9.30;;
19940;SDS011;10132;50.864;5.176;2023-03-01T05:57:34;14.10;;;8.90;;
19940;SDS011;10132;50.864;5.176;2023-03-01T05:59:36;12.63;;;9.43;;
19940;SDS011;10132;50.864;5.176;2023-03-01T06:01:39;13.37;;;8.80;;
19940;SDS011;10132;50.864;5.176;2023-03-01T06:03:41;12.07;;;8.77;;
19940;SDS011;10132;50.864;5.176;2023-03-01T06:05:43;14.10;;;9.20;;
19940;SDS011;10132;50.864;5.176;2023-03-01T06:07:46;13.00;;;9.40;;
19940;SDS011;10132;50.864;5.176;2023-03-01T06:09:48;12.10;;;8.90;;
19940;SDS011;10132;50.864;5.176;2023-03-01T06:11:49;12.67;;;8.53;;
19940;SDS011;10132;50.864;5.176;2023-03-01T06:13:51;12.57;;;9.40;;
19940;SDS011;10132;50.864;5.176;2023-03-01T06:15:53;11.50;;;8.70;;
19940;SDS011;10132;50.864;5.176;2023-03-01T06:17:57;12.77;;;9.10;;
19940;SDS011;10132;50.864;5.176;2023-03-01T06:19:59;15.60;;;9.50;;
19940;SDS011;10132;50.864;5.176;2023-03-01T06:22:01;15.33;;;9.10;;
19940;SDS011;10132;50.864;5.176;2023-03-01T06:24:03;14.17;;;9.10;;
19940;SDS011;10132;50.864;5.176;2023-03-01T06:26:07;13.70;;;9.00;;
19940;SDS011;10132;50.864;5.176;2023-03-01T06:28:10;13.90;;;9.10;;
19940;SDS011;10132;50.864;5.176;2023-03-01T06:30:12;15.07;;;10.03;;
19940;SDS011;10132;50.864;5.176;2023-03-01T06:32:16;18.33;;;10.27;;
19940;SDS011;10132;50.864;5.176;2023-03-01T06:34:19;17.50;;;10.27;;
19940;SDS011;10132;50.864;5.176;2023-03-01T06:36:21;15.87;;;9.87;;
19940;SDS011;10132;50.864;5.176;2023-03-01T06:38:23;19.00;;;10.00;;
19940;SDS011;10132;50.864;5.176;2023-03-01T06:40:25;20.70;;;10.07;;
19940;SDS011;10132;50.864;5.176;2023-03-01T06:42:28;14.70;;;11.03;;
19940;SDS011;10132;50.864;5.176;2023-03-01T06:44:30;16.50;;;10.40;;
19940;SDS011;10132;50.864;5.176;2023-03-01T06:46:31;16.63;;;10.10;;
19940;SDS011;10132;50.864;5.176;2023-03-01T06:48:33;11.77;;;9.40;;
19940;SDS011;10132;50.864;5.176;2023-03-01T06:50:37;15.03;;;10.17;;
19940;SDS011;10132;50.864;5.176;2023-03-01T06:52:39;17.60;;;11.07;;
19940;SDS011;10132;50.864;5.176;2023-03-01T06:54:41;18.10;;;11.10;;
19940;SDS011;10132;50.864;5.176;2023-03-01T06:56:46;17.73;;;12.53;;
19940;SDS011;10132;50.864;5.176;2023-03-01T06:58:48;13.67;;;10.50;;
19940;SDS011;10132;50.864;5.176;2023-03-01T07:00:50;14.00;;;10.03;;
19940;SDS011;10132;50.864;5.176;2023-03-01T07:02:52;16.77;;;11.23;;
19940;SDS011;10132;50.864;5.176;2023-03-01T07:04:54;15.93;;;11.30;;
19940;SDS011;10132;50.864;5.176;2023-03-01T07:06:58;20.20;;;12.23;;
19940;SDS011;10132;50.864;5.176;2023-03-01T07:09:00;19.50;;;14.17;;
19940;SDS011;10132;50.864;5.176;2023-03-01T07:11:02;23.93;;;12.97;;
19940;SDS011;10132;50.864;5.176;2023-03-01T07:13:04;22.00;;;13.23;;
19940;SDS011;10132;50.864;5.176;2023-03-01T07:15:08;16.77;;;11.97;;
19940;SDS011;10132;50.864;5.176;2023-03-01T07:17:11;14.30;;;11.03;;
19940;SDS011;10132;50.864;5.176;2023-03-01T07:19:13;17.87;;;11.77;;
19940;SDS011;10132;50.864;5.176;2023-03-01T07:21:15;16.10;;;10.90;;
19940;SDS011;10132;50.864;5.176;2023-03-01T07:23:18;17.07;;;12.47;;
19940;SDS011;10132;50.864;5.176;2023-03-01T07:25:20;16.47;;;11.83;;
19940;SDS011;10132;50.864;5.176;2023-03-01T07:27:23;16.20;;;12.00;;
19940;SDS011;10132;50.864;5.176;2023-03-01T07:29:24;20.87;;;12.33;;
19940;SDS011;10132;50.864;5.176;2023-03-01T07:31:28;17.13;;;11.63;;
19940;SDS011;10132;50.864;5.176;2023-03-01T07:33:30;17.87;;;11.23;;
19940;SDS011;10132;50.864;5.176;2023-03-01T07:35:32;17.87;;;11.93;;
19940;SDS011;10132;50.864;5.176;2023-03-01T07:37:34;16.87;;;11.40;;
19940;SDS011;10132;50.864;5.176;2023-03-01T07:39:38;14.97;;;11.17;;
19940;SDS011;10132;50.864;5.176;2023-03-01T07:41:40;16.17;;;11.10;;
19940;SDS011;10132;50.864;5.176;2023-03-01T07:43:42;16.33;;;11.10;;
19940;SDS011;10132;50.864;5.176;2023-03-01T07:45:44;16.33;;;10.27;;
19940;SDS011;10132;50.864;5.176;2023-03-01T07:47:45;13.77;;;10.90;;
19940;SDS011;10132;50.864;5.176;2023-03-01T07:49:47;14.27;;;10.80;;
19940;SDS011;10132;50.864;5.176;2023-03-01T07:51:49;12.90;;;10.67;;
19940;SDS011;10132;50.864;5.176;2023-03-01T07:53:51;15.10;;;10.97;;
19940;SDS011;10132;50.864;5.176;2023-03-01T07:56:01;17.13;;;11.27;;
19940;SDS011;10132;50.864;5.176;2023-03-01T07:58:04;12.27;;;9.90;;
19940;SDS011;10132;50.864;5.176;2023-03-01T08:00:06;12.13;;;10.17;;
19940;SDS011;10132;50.864;5.176;2023-03-01T08:02:11;12.70;;;10.33;;
19940;SDS011;10132;50.864;5.176;2023-03-01T08:04:15;13.63;;;10.30;;
19940;SDS011;10132;50.864;5.176;2023-03-01T08:06:17;15.07;;;10.67;;
19940;SDS011;10132;50.864;5.176;2023-03-01T08:08:19;12.97;;;10.67;;
19940;SDS011;10132;50.864;5.176;2023-03-01T08:10:21;14.90;;;10.37;;
19940;SDS011;10132;50.864;5.176;2023-03-01T08:12:25;16.00;;;10.73;;
19940;SDS011;10132;50.864;5.176;2023-03-01T08:14:28;14.60;;;10.27;;
19940;SDS011;10132;50.864;5.176;2023-03-01T08:16:30;14.90;;;10.70;;
19940;SDS011;10132;50.864;5.176;2023-03-01T08:18:33;16.37;;;12.37;;
19940;SDS011;10132;50.864;5.176;2023-03-01T08:20:35;14.67;;;9.67;;
19940;SDS011;10132;50.864;5.176;2023-03-01T08:22:37;14.30;;;10.47;;
19940;SDS011;10132;50.864;5.176;2023-03-01T08:24:39;14.60;;;10.07;;
19940;SDS011;10132;50.864;5.176;2023-03-01T08:26:41;13.67;;;9.80;;
19940;SDS011;10132;50.864;5.176;2023-03-01T08:28:44;16.13;;;10.97;;
19940;SDS011;10132;50.864;5.176;2023-03-01T08:30:47;13.87;;;9.80;;
19940;SDS011;10132;50.864;5.176;2023-03-01T08:32:49;14.17;;;9.70;;
19940;SDS011;10132;50.864;5.176;2023-03-01T08:34:51;11.93;;;10.00;;
19940;SDS011;10132;50.864;5.176;2023-03-01T08:36:53;15.23;;;10.47;;
19940;SDS011;10132;50.864;5.176;2023-03-01T08:38:55;13.87;;;10.47;;
19940;SDS011;10132;50.864;5.176;2023-03-01T08:40:59;12.70;;;9.93;;
19940;SDS011;10132;50.864;5.176;2023-03-01T08:43:01;11.80;;;10.00;;
19940;SDS011;10132;50.864;5.176;2023-03-01T08:45:05;16.93;;;10.60;;
19940;SDS011;10132;50.864;5.176;2023-03-01T08:47:08;16.37;;;10.73;;
19940;SDS011;10132;50.864;5.176;2023-03-01T08:49:11;16.60;;;10.70;;
19940;SDS011;10132;50.864;5.176;2023-03-01T08:51:15;13.90;;;10.33;;
19940;SDS011;10132;50.864;5.176;2023-03-01T08:53:18;14.03;;;10.57;;
19940;SDS011;10132;50.864;5.176;2023-03-01T08:55:20;14.43;;;10.53;;
19940;SDS011;10132;50.864;5.176;2023-03-01T08:57:22;15.50;;;10.10;;
19940;SDS011;10132;50.864;5.176;2023-03-01T08:59:24;15.37;;;10.30;;
19940;SDS011;10132;50.864;5.176;2023-03-01T09:01:28;13.83;;;9.20;;
19940;SDS011;10132;50.864;5.176;2023-03-01T09:03:30;13.20;;;8.80;;
19940;SDS011;10132;50.864;5.176;2023-03-01T09:05:32;13.40;;;9.77;;
19940;SDS011;10132;50.864;5.176;2023-03-01T09:07:36;11.97;;;8.90;;
19940;SDS011;10132;50.864;5.176;2023-03-01T09:09:38;14.27;;;10.10;;
19940;SDS011;10132;50.864;5.176;2023-03-01T09:11:40;12.20;;;9.90;;
19940;SDS011;10132;50.864;5.176;2023-03-01T09:13:42;13.50;;;9.83;;
19940;SDS011;10132;50.864;5.176;2023-03-01T09:15:44;11.37;;;9.10;;
19940;SDS011;10132;50.864;5.176;2023-03-01T09:17:47;15.60;;;9.67;;
19940;SDS011;10132;50.864;5.176;2023-03-01T09:19:49;12.77;;;9.23;;
19940;SDS011;10132;50.864;5.176;2023-03-01T09:21:51;17.43;;;9.70;;
19940;SDS011;10132;50.864;5.176;2023-03-01T09:23:53;11.50;;;9.87;;
19940;SDS011;10132;50.864;5.176;2023-03-01T09:25:58;16.07;;;10.00;;
19940;SDS011;10132;50.864;5.176;2023-03-01T09:28:00;11.43;;;9.27;;
19940;SDS011;10132;50.864;5.176;2023-03-01T09:30:02;12.83;;;9.93;;
19940;SDS011;10132;50.864;5.176;2023-03-01T09:32:04;14.40;;;10.00;;
19940;SDS011;10132;50.864;5.176;2023-03-01T09:34:08;13.23;;;10.50;;
19940;SDS011;10132;50.864;5.176;2023-03-01T09:36:11;12.10;;;9.97;;
19940;SDS011;10132;50.864;5.176;2023-03-01T09:38:14;11.63;;;9.60;;
19940;SDS011;10132;50.864;5.176;2023-03-01T09:40:16;12.40;;;9.80;;
19940;SDS011;10132;50.864;5.176;2023-03-01T09:42:20;13.57;;;9.40;;
19940;SDS011;10132;50.864;5.176;2023-03-01T09:44:31;13.27;;;8.80;;
19940;SDS011;10132;50.864;5.176;2023-03-01T09:46:37;12.77;;;9.97;;
19940;SDS011;10132;50.864;5.176;2023-03-01T09:48:44;14.27;;;9.03;;
19940;SDS011;10132;50.864;5.176;2023-03-01T09:50:52;13.10;;;9.93;;
19940;SDS011;10132;50.864;5.176;2023-03-01T09:52:58;16.03;;;12.03;;
19940;SDS011;10132;50.864;5.176;2023-03-01T09:55:05;16.53;;;11.27;;
19940;SDS011;10132;50.864;5.176;2023-03-01T09:57:15;17.00;;;10.80;;
19940;SDS011;10132;50.864;5.176;2023-03-01T09:59:22;15.57;;;11.13;;
19940;SDS011;10132;50.864;5.176;2023-03-01T10:01:29;15.77;;;11.27;;
19940;SDS011;10132;50.864;5.176;2023-03-01T10:03:36;17.13;;;11.10;;
19940;SDS011;10132;50.864;5.176;2023-03-01T10:05:47;14.53;;;10.60;;
19940;SDS011;10132;50.864;5.176;2023-03-01T10:08:00;13.70;;;9.77;;
19940;SDS011;10132;50.864;5.176;2023-03-01T10:10:16;12.27;;;9.70;;
19940;SDS011;10132;50.864;5.176;2023-03-01T10:12:30;10.80;;;9.57;;
19940;SDS011;10132;50.864;5.176;2023-03-01T10:14:38;17.20;;;10.00;;
19940;SDS011;10132;50.864;5.176;2023-03-01T10:16:46;14.77;;;10.00;;
19940;SDS011;10132;50.864;5.176;2023-03-01T10:18:55;12.50;;;9.90;;
19940;SDS011;10132;50.864;5.176;2023-03-01T10:21:02;10.67;;;9.33;;
19940;SDS011;10132;50.864;5.176;2023-03-01T10:23:13;15.03;;;9.60;;
19940;SDS011;10132;50.864;5.176;2023-03-01T10:25:15;13.57;;;10.00;;
19940;SDS011;10132;50.864;5.176;2023-03-01T10:27:22;15.03;;;10.63;;
19940;SDS011;10132;50.864;5.176;2023-03-01T10:29:26;13.00;;;9.90;;
19940;SDS011;10132;50.864;5.176;2023-03-01T10:31:38;14.07;;;10.30;;
19940;SDS011;10132;50.864;5.176;2023-03-01T10:33:43;11.87;;;9.77;;
19940;SDS011;10132;50.864;5.176;2023-03-01T10:35:45;14.00;;;9.93;;
19940;SDS011;10132;50.864;5.176;2023-03-01T10:37:58;12.07;;;9.73;;
19940;SDS011;10132;50.864;5.176;2023-03-01T10:40:05;18.77;;;10.70;;
19940;SDS011;10132;50.864;5.176;2023-03-01T10:42:18;11.63;;;10.23;;
19940;SDS011;10132;50.864;5.176;2023-03-01T10:44:40;14.17;;;10.53;;
19940;SDS011;10132;50.864;5.176;2023-03-01T10:46:44;13.53;;;10.93;;
19940;SDS011;10132;50.864;5.176;2023-03-01T10:48:46;12.90;;;10.67;;
19940;SDS011;10132;50.864;5.176;2023-03-01T10:51:16;12.60;;;10.60;;
19940;SDS011;10132;50.864;5.176;2023-03-01T10:53:23;12.77;;;10.40;;
19940;SDS011;10132;50.864;5.176;2023-03-01T10:55:30;13.03;;;10.30;;
19940;SDS011;10132;50.864;5.176;2023-03-01T10:57:36;11.87;;;10.67;;
19940;SDS011;10132;50.864;5.176;2023-03-01T10:59:40;14.80;;;10.53;;
19940;SDS011;10132;50.864;5.176;2023-03-01T11:01:42;13.60;;;10.37;;
19940;SDS011;10132;50.864;5.176;2023-03-01T11:03:44;13.73;;;10.27;;
19940;SDS011;10132;50.864;5.176;2023-03-01T11:05:56;13.17;;;10.77;;
19940;SDS011;10132;50.864;5.176;2023-03-01T11:08:01;12.17;;;10.30;;
19940;SDS011;10132;50.864;5.176;2023-03-01T11:10:15;11.47;;;10.10;;
19940;SDS011;10132;50.864;5.176;2023-03-01T11:12:20;13.00;;;10.67;;
19940;SDS011;10132;50.864;5.176;2023-03-01T11:14:22;14.53;;;11.90;;
19940;SDS011;10132;50.864;5.176;2023-03-01T11:16:27;18.40;;;12.23;;
19940;SDS011;10132;50.864;5.176;2023-03-01T11:18:36;16.67;;;10.80;;
19940;SDS011;10132;50.864;5.176;2023-03-01T11:20:38;11.87;;;9.83;;
19940;SDS011;10132;50.864;5.176;2023-03-01T11:22:42;16.57;;;13.00;;
19940;SDS011;10132;50.864;5.176;2023-03-01T11:24:49;13.37;;;9.90;;
19940;SDS011;10132;50.864;5.176;2023-03-01T11:26:55;13.03;;;9.73;;
19940;SDS011;10132;50.864;5.176;2023-03-01T11:28:58;10.97;;;9.67;;
19940;SDS011;10132;50.864;5.176;2023-03-01T11:31:06;15.77;;;10.07;;
19940;SDS011;10132;50.864;5.176;2023-03-01T11:33:14;13.73;;;10.20;;
19940;SDS011;10132;50.864;5.176;2023-03-01T11:35:20;15.93;;;10.37;;
19940;SDS011;10132;50.864;5.176;2023-03-01T11:37:32;13.87;;;11.07;;
19940;SDS011;10132;50.864;5.176;2023-03-01T11:39:39;17.97;;;14.30;;
19940;SDS011;10132;50.864;5.176;2023-03-01T11:41:45;15.40;;;11.40;;
19940;SDS011;10132;50.864;5.176;2023-03-01T11:43:56;14.10;;;10.87;;
19940;SDS011;10132;50.864;5.176;2023-03-01T11:48:44;13.17;;;10.20;;
19940;SDS011;10132;50.864;5.176;2023-03-01T11:50:54;10.97;;;9.87;;
19940;SDS011;10132;50.864;5.176;2023-03-01T11:53:01;13.93;;;10.33;;
19940;SDS011;10132;50.864;5.176;2023-03-01T11:55:19;14.63;;;10.20;;
19940;SDS011;10132;50.864;5.176;2023-03-01T11:57:37;14.70;;;10.70;;
19940;SDS011;10132;50.864;5.176;2023-03-01T11:59:55;12.17;;;10.87;;
19940;SDS011;10132;50.864;5.176;2023-03-01T12:02:12;11.83;;;9.60;;
19940;SDS011;10132;50.864;5.176;2023-03-01T12:04:50;12.70;;;10.37;;
19940;SDS011;10132;50.864;5.176;2023-03-01T12:07:15;13.20;;;10.23;;
19940;SDS011;10132;50.864;5.176;2023-03-01T12:09:25;14.03;;;10.23;;
19940;SDS011;10132;50.864;5.176;2023-03-01T12:11:48;13.30;;;10.40;;
19940;SDS011;10132;50.864;5.176;2023-03-01T12:14:13;12.13;;;9.90;;
19940;SDS011;10132;50.864;5.176;2023-03-01T12:16:36;12.30;;;9.70;;
19940;SDS011;10132;50.864;5.176;2023-03-01T12:18:56;11.57;;;9.77;;
19940;SDS011;10132;50.864;5.176;2023-03-01T12:21:14;11.37;;;10.17;;